Time;durP1;ratioP1;P1;durP2;ratioP2;P2;SDS_P1;SDS_P2;PMS_P1;PMS_P2;Temp;Humidity;BMP_temperature;BMP_pressure;BME280_temperature;BME280_humidity;BME280_pressure;Samples;Min_cycle;Max_cycle;Signal;HPM_P1;HPM_P2
2022/08/05 00:02:22;;;;;;;6.08;3.77;;;;;;;24.64;41.67;100742.88;1622707;87;21182;-74
2022/08/05 00:04:49;;;;;;;4.30;3.85;;;;;;;24.62;41.70;100746.59;1620195;87;21091;-74
2022/08/05 00:07:15;;;;;;;5.42;3.52;;;;;;;24.55;41.78;100744.02;1623054;86;21081;-74
2022/08/05 00:09:42;;;;;;;10.60;4.03;;;;;;;24.52;41.83;100741.59;1622567;86;21152;-74
2022/08/05 00:12:08;;;;;;;7.28;3.85;;;;;;;24.47;41.91;100741.09;1629908;86;21150;-74
2022/08/05 00:14:35;;;;;;;12.30;3.87;;;;;;;24.45;41.95;100743.84;1621021;87;21126;-73
2022/08/05 00:17:01;;;;;;;6.12;4.25;;;;;;;24.44;42.01;100739.50;1617473;87;21084;-73
2022/08/05 00:19:28;;;;;;;7.42;3.95;;;;;;;24.43;42.05;100741.30;1624363;87;21631;-74
2022/08/05 00:21:54;;;;;;;7.28;3.85;;;;;;;24.42;42.08;100740.12;1620363;86;21137;-74
2022/08/05 00:24:20;;;;;;;7.70;4.05;;;;;;;24.41;42.14;100744.56;1619269;87;21555;-74
2022/08/05 00:26:47;;;;;;;4.28;3.87;;;;;;;24.38;42.16;100736.01;1625110;86;21717;-74
2022/08/05 00:29:13;;;;;;;4.60;4.10;;;;;;;24.35;42.24;100745.48;1618062;87;21068;-74
2022/08/05 00:31:40;;;;;;;7.33;3.45;;;;;;;24.33;42.29;100742.95;1624529;86;21126;-74
2022/08/05 00:34:06;;;;;;;5.10;4.20;;;;;;;24.34;42.33;100738.50;1621463;86;21187;-74
2022/08/05 00:36:36;;;;;;;8.15;4.05;;;;;;;24.30;42.35;100741.00;1613631;86;21135;-74
2022/08/05 00:39:02;;;;;;;6.05;3.92;;;;;;;24.27;42.43;100738.58;1620805;87;21063;-74
2022/08/05 00:41:33;;;;;;;4.47;4.05;;;;;;;24.25;42.48;100738.68;1617857;87;21163;-74
2022/08/05 00:44:01;;;;;;;6.10;3.62;;;;;;;24.23;42.53;100731.78;1619353;86;21155;-74
2022/08/05 00:46:27;;;;;;;5.30;4.03;;;;;;;24.20;42.57;100730.20;1605828;86;21128;-74
2022/08/05 00:48:54;;;;;;;4.33;3.92;;;;;;;24.17;42.66;100730.42;1626037;86;21171;-74
2022/08/05 00:51:21;;;;;;;;;;;;;;;24.15;42.70;100726.19;1623979;86;21171;-74
2022/08/05 00:53:49;;;;;;;3.90;3.55;;;;;;;24.10;42.75;100722.08;1620854;86;20195;-73
2022/08/05 00:56:16;;;;;;;3.92;3.42;;;;;;;24.05;42.71;100723.36;1622372;86;21126;-73
2022/08/05 00:58:43;;;;;;;5.15;3.85;;;;;;;23.98;42.80;100726.05;1619827;86;21095;-73
2022/08/05 01:01:10;;;;;;;;;;;;;;;23.92;42.90;100719.88;1620065;87;21123;-73
2022/08/05 01:03:38;;;;;;;4.95;4.15;;;;;;;23.87;43.00;100720.23;1623013;86;20257;-73
2022/08/05 01:06:06;;;;;;;4.58;4.17;;;;;;;23.82;42.98;100718.39;1618800;87;21131;-73
2022/08/05 01:08:33;;;;;;;4.10;3.70;;;;;;;23.81;43.03;100722.45;1598020;88;21140;-73
2022/08/05 01:11:17;;;;;;;4.50;4.17;;;;;;;23.78;43.09;100719.55;1622822;86;20965;-74
2022/08/05 01:14:01;;;;;;;6.35;3.95;;;;;;;23.76;43.16;100719.66;1608124;86;21135;-74
2022/08/05 01:16:49;;;;;;;4.35;3.80;;;;;;;23.76;43.22;100722.30;1608814;86;21083;-74
2022/08/05 01:19:24;;;;;;;5.72;3.42;;;;;;;23.74;43.28;100712.79;1611343;86;21095;-74
2022/08/05 01:22:12;;;;;;;4.90;3.80;;;;;;;23.72;43.35;100712.05;1636052;86;21069;-74
2022/08/05 01:25:01;;;;;;;8.55;4.12;;;;;;;23.69;43.39;100711.79;1630343;86;21354;-74
2022/08/05 01:28:22;;;;;;;3.80;3.47;;;;;;;23.66;43.44;100708.52;1630627;86;21095;-74
2022/08/05 01:31:21;;;;;;;6.25;4.00;;;;;;;23.63;43.51;100700.80;1626643;86;21051;-73
2022/08/05 01:33:59;;;;;;;6.55;3.98;;;;;;;23.58;43.56;100702.91;1611848;87;21206;-73
2022/08/05 01:36:31;;;;;;;9.13;4.85;;;;;;;23.54;43.60;100702.75;1623729;86;21115;-74
2022/08/05 01:38:59;;;;;;;4.25;3.62;;;;;;;23.47;43.66;100700.97;1624391;86;21112;-74
2022/08/05 01:41:30;;;;;;;7.22;3.70;;;;;;;23.40;43.79;100695.74;1632022;86;21119;-74
2022/08/05 01:43:57;;;;;;;5.05;3.80;;;;;;;23.37;43.87;100690.23;1630502;86;21805;-74
2022/08/05 01:46:25;;;;;;;5.35;3.58;;;;;;;23.36;43.92;100691.18;1624797;87;21091;-74
2022/08/05 01:48:54;;;;;;;7.50;3.45;;;;;;;23.35;43.94;100688.17;1603984;87;21150;-74
2022/08/05 01:51:23;;;;;;;7.67;3.47;;;;;;;23.33;43.99;100695.34;1615152;87;21070;-74
2022/08/05 01:53:52;;;;;;;5.10;3.67;;;;;;;23.32;44.01;100691.48;1644011;86;21061;-74
2022/08/05 01:56:20;;;;;;;7.42;3.67;;;;;;;23.30;44.09;100691.59;1645202;86;21074;-74
2022/08/05 01:58:49;;;;;;;9.40;4.05;;;;;;;23.28;44.18;100692.64;1625391;86;21146;-74
2022/08/05 02:01:19;;;;;;;5.05;4.12;;;;;;;23.25;44.23;100693.70;1634540;86;21196;-73
2022/08/05 02:03:48;;;;;;;6.90;4.12;;;;;;;23.26;44.27;100691.91;1596294;88;21128;-74
2022/08/05 02:06:15;;;;;;;13.32;4.15;;;;;;;23.23;44.32;100694.27;1600028;88;21099;-74
2022/08/05 02:08:42;;;;;;;15.03;4.05;;;;;;;23.20;44.38;100689.20;1640297;86;21159;-74
2022/08/05 02:11:11;;;;;;;;;;;;;;;23.21;44.42;100688.25;1639810;86;21092;-74
2022/08/05 02:14:02;;;;;;;3.67;3.37;;;;;;;23.19;44.49;100690.63;1626572;86;21055;-74
2022/08/05 02:16:51;;;;;;;4.53;3.60;;;;;;;23.14;44.48;100686.13;1631766;86;21114;-74
2022/08/05 02:19:23;;;;;;;8.15;4.05;;;;;;;23.11;44.53;100693.30;1630064;86;21183;-74
2022/08/05 02:22:04;;;;;;;4.83;3.55;;;;;;;23.08;44.62;100688.70;1632834;86;21551;-74
2022/08/05 02:24:37;;;;;;;4.12;3.80;;;;;;;23.08;44.69;100689.55;1628731;86;21094;-74
2022/08/05 02:27:08;;;;;;;7.33;4.00;;;;;;;23.09;44.71;100687.76;1630244;86;21545;-74
2022/08/05 02:29:36;;;;;;;9.05;4.30;;;;;;;23.07;44.79;100683.91;1632404;86;21075;-73
2022/08/05 02:32:05;;;;;;;4.87;3.42;;;;;;;23.03;44.86;100686.38;1635370;86;21060;-73
2022/08/05 02:34:34;;;;;;;5.70;3.98;;;;;;;22.99;44.91;100686.20;1641736;86;21094;-74
2022/08/05 02:37:04;;;;;;;4.42;4.03;;;;;;;22.96;45.00;100684.24;1629282;86;21589;-74
2022/08/05 02:39:35;;;;;;;5.15;4.10;;;;;;;22.95;45.02;100689.14;1634870;86;21104;-74
2022/08/05 02:42:03;;;;;;;4.25;3.42;;;;;;;22.91;45.10;100679.75;1643293;86;21611;-74
2022/08/05 02:44:35;;;;;;;7.87;3.95;;;;;;;22.88;45.16;100681.27;1632286;86;21202;-74
2022/08/05 02:47:04;;;;;;;4.42;3.50;;;;;;;22.86;45.22;100680.55;1584635;88;21128;-74
2022/08/05 02:49:34;;;;;;;10.40;4.05;;;;;;;22.83;45.28;100677.64;1581941;88;21091;-74
2022/08/05 02:52:06;;;;;;;3.95;3.65;;;;;;;22.81;45.33;100676.90;1614017;87;21393;-74
2022/08/05 02:54:36;;;;;;;8.00;3.50;;;;;;;22.76;45.40;100677.64;1638391;86;21128;-74
2022/08/05 02:57:05;;;;;;;5.87;3.98;;;;;;;22.74;45.48;100683.02;1616982;87;21816;-74
2022/08/05 02:59:32;;;;;;;4.55;3.37;;;;;;;22.73;45.52;100677.84;1630495;86;21591;-74
2022/08/05 03:02:01;;;;;;;4.55;4.15;;;;;;;22.68;45.63;100675.51;1598028;87;21145;-74
2022/08/05 03:04:28;;;;;;;7.75;3.98;;;;;;;22.68;45.66;100675.98;1584899;89;21124;-74
2022/08/05 03:06:57;;;;;;;5.50;3.98;;;;;;;22.66;45.73;100673.45;1584583;88;21125;-74
2022/08/05 03:09:24;;;;;;;5.33;3.98;;;;;;;22.65;45.74;100674.39;1585273;89;21116;-74
2022/08/05 03:11:50;;;;;;;;;;;;;;;22.60;45.80;100668.57;1593805;88;20932;-74
2022/08/05 03:14:16;;;;;;;4.15;3.80;;;;;;;22.57;45.90;100664.81;1619110;87;20155;-74
2022/08/05 03:16:43;;;;;;;7.87;4.30;;;;;;;22.56;45.83;100666.23;1572116;88;21105;-74
2022/08/05 03:19:09;;;;;;;4.50;4.10;;;;;;;22.54;45.90;100660.22;1635674;86;21106;-74
2022/08/05 03:21:36;;;;;;;6.67;3.70;;;;;;;22.48;45.97;100661.93;1630290;86;21170;-74
2022/08/05 03:24:05;;;;;;;6.35;3.95;;;;;;;22.44;46.04;100659.96;1626703;86;21608;-74
2022/08/05 03:26:32;;;;;;;5.45;3.65;;;;;;;22.42;46.11;100659.22;1631290;86;20980;-74
2022/08/05 03:28:59;;;;;;;4.33;3.92;;;;;;;22.41;46.19;100650.94;1634396;86;20944;-74
2022/08/05 03:31:27;;;;;;;5.40;3.67;;;;;;;22.40;46.23;100652.73;1631809;86;21360;-73
2022/08/05 03:33:53;;;;;;;9.98;4.12;;;;;;;22.38;46.30;100647.19;1629304;86;20955;-74
2022/08/05 03:36:20;;;;;;;4.70;3.70;;;;;;;22.38;46.36;100649.81;1632234;86;20976;-74
2022/08/05 03:38:47;;;;;;;8.33;3.72;;;;;;;22.36;46.42;100645.96;1631830;86;20932;-74
2022/08/05 03:41:15;;;;;;;6.58;3.95;;;;;;;22.35;46.45;100637.72;1612385;87;21040;-74
2022/08/05 03:43:42;;;;;;;6.92;4.42;;;;;;;22.34;46.48;100645.72;1633186;86;20983;-74
2022/08/05 03:46:09;;;;;;;4.45;4.00;;;;;;;22.33;46.57;100642.71;1634336;86;20980;-74
2022/08/05 03:48:35;;;;;;;4.90;3.90;;;;;;;22.36;46.60;100639.84;1634451;87;21947;-74
2022/08/05 03:51:25;;;;;;;4.87;3.70;;;;;;;22.35;46.62;100644.30;1633173;86;20941;-74
2022/08/05 03:54:11;;;;;;;4.12;3.83;;;;;;;22.38;46.65;100648.03;1631584;86;20960;-74
2022/08/05 03:56:43;;;;;;;4.87;3.70;;;;;;;22.38;46.71;100639.28;1555409;90;21436;-74
2022/08/05 03:59:17;;;;;;;4.33;3.92;;;;;;;22.37;46.74;100635.80;1603059;87;21429;-74
2022/08/05 04:01:47;;;;;;;5.33;4.33;;;;;;;22.39;46.77;100643.13;1623613;86;20905;-74
2022/08/05 04:04:15;;;;;;;7.10;4.35;;;;;;;22.41;46.83;100641.72;1627211;87;21049;-74
2022/08/05 04:06:42;;;;;;;4.20;3.80;;;;;;;22.39;46.85;100643.13;1632397;87;21079;-74
2022/08/05 04:09:09;;;;;;;4.37;3.98;;;;;;;22.43;46.88;100644.63;1632354;86;21030;-74
2022/08/05 04:11:37;;;;;;;5.22;3.75;;;;;;;22.43;46.92;100643.78;1632269;87;21094;-74
2022/08/05 04:14:04;;;;;;;4.03;3.77;;;;;;;22.45;46.96;100643.20;1632389;86;21009;-74
2022/08/05 04:16:34;;;;;;;4.30;4.00;;;;;;;22.48;47.00;100644.33;1632040;87;21139;-74
2022/08/05 04:19:01;;;;;;;4.40;4.00;;;;;;;22.52;47.01;100639.70;1632622;87;21078;-74
2022/08/05 04:21:29;;;;;;;4.28;3.98;;;;;;;22.54;47.06;100636.50;1637339;87;21159;-74
2022/08/05 04:24:00;;;;;;;7.72;3.75;;;;;;;22.59;47.09;100639.67;1632255;86;21084;-74
2022/08/05 04:26:24;;;;;;;3.75;3.55;;;;;;;22.60;47.11;100636.94;1626932;87;21095;-74
2022/08/05 04:28:51;;;;;;;4.67;4.22;;;;;;;22.63;47.16;100632.78;1617486;87;21080;-74
2022/08/05 04:31:17;;;;;;;5.97;3.85;;;;;;;22.68;47.17;100640.39;1639855;86;21563;-74
2022/08/05 04:33:43;;;;;;;8.15;3.67;;;;;;;22.70;47.16;100631.91;1596251;88;21552;-74
2022/08/05 04:36:11;;;;;;;5.92;3.62;;;;;;;22.73;47.22;100630.39;1595370;88;21779;-74
2022/08/05 04:38:37;;;;;;;4.97;3.52;;;;;;;22.75;47.23;100621.91;1636461;86;21066;-74
2022/08/05 04:41:04;;;;;;;4.05;3.60;;;;;;;22.81;47.25;100625.48;1633165;86;21063;-74
2022/08/05 04:43:30;;;;;;;4.20;3.42;;;;;;;22.79;47.19;100604.97;1648281;86;21725;-74
2022/08/05 04:45:57;;;;;;;6.15;4.15;;;;;;;22.79;47.19;100604.97;1648549;86;21638;-74
2022/08/05 04:48:24;;;;;;;9.70;3.40;;;;;;;22.96;47.26;100627.55;1609779;87;46206;-74
2022/08/05 04:50:51;;;;;;;6.47;3.77;;;;;;;23.02;47.29;100629.77;1632240;86;21735;-74
2022/08/05 04:53:19;;;;;;;8.33;3.55;;;;;;;23.07;47.27;100632.94;1636380;86;21110;-74
2022/08/05 04:55:46;;;;;;;5.03;3.83;;;;;;;23.10;47.30;100625.66;1642445;86;21071;-74
2022/08/05 04:58:15;;;;;;;4.47;3.77;;;;;;;23.16;47.30;100634.11;1636920;86;21588;-74
2022/08/05 05:00:43;;;;;;;4.92;3.20;;;;;;;23.21;47.30;100630.69;1629990;86;21088;-74
2022/08/05 05:03:10;;;;;;;4.95;3.20;;;;;;;23.23;47.33;100619.08;1633248;86;20929;-74
2022/08/05 05:05:37;;;;;;;5.95;3.00;;;;;;;23.28;47.33;100625.36;1628722;86;21048;-74
2022/08/05 05:08:06;;;;;;;5.70;3.35;;;;;;;23.34;47.31;100624.47;1631679;86;20943;-74
2022/08/05 05:10:42;;;;;;;3.52;3.05;;;;;;;23.39;47.31;100630.75;1644851;86;20941;-74
2022/08/05 05:13:13;;;;;;;4.05;2.85;;;;;;;23.46;47.28;100625.38;1619478;86;21425;-74
2022/08/05 05:15:40;;;;;;;4.08;3.25;;;;;;;23.53;47.29;100626.68;1631726;86;20989;-74
2022/08/05 05:18:10;;;;;;;3.22;2.92;;;;;;;23.62;47.29;100627.83;1637419;86;21386;-74
2022/08/05 05:20:37;;;;;;;4.50;3.10;;;;;;;23.71;47.26;100629.83;1643055;86;20976;-74
2022/08/05 05:23:04;;;;;;;4.17;3.17;;;;;;;23.82;47.24;100629.08;1617854;86;21477;-74
2022/08/05 05:25:30;;;;;;;5.80;3.10;;;;;;;23.97;47.20;100626.16;1607501;88;20978;-74
2022/08/05 05:27:57;;;;;;;3.37;3.08;;;;;;;24.22;47.19;100627.03;1604937;88;20991;-74
2022/08/05 05:30:24;;;;;;;7.12;3.17;;;;;;;24.63;47.20;100624.84;1594263;88;21890;-74
2022/08/05 05:32:50;;;;;;;4.42;3.10;;;;;;;25.23;47.05;100622.49;1615523;88;26037;-74
2022/08/05 05:35:17;;;;;;;3.33;2.52;;;;;;;25.88;46.85;100620.47;1596292;88;20960;-74
2022/08/05 05:37:53;;;;;;;6.67;2.52;;;;;;;26.52;46.73;100622.34;1608761;88;21138;-74
2022/08/05 05:40:23;;;;;;;3.08;2.52;;;;;;;27.15;46.42;100625.88;1598699;88;21646;-74
2022/08/05 05:42:50;;;;;;;5.53;2.70;;;;;;;27.74;46.19;100626.52;1599372;88;22118;-74
2022/08/05 05:45:17;;;;;;;5.53;3.00;;;;;;;28.23;45.86;100626.52;1603144;88;21114;-75
2022/08/05 05:47:44;;;;;;;5.50;2.75;;;;;;;28.73;45.49;100631.70;1601362;87;21403;-75
2022/08/05 05:50:12;;;;;;;;;;;;;;;29.24;45.20;100626.03;1572540;90;21065;-74
2022/08/05 05:52:39;;;;;;;6.03;2.70;;;;;;;29.75;44.46;100627.88;1597428;88;20601;-74
2022/08/05 05:55:10;;;;;;;;;;;;;;;30.20;44.59;100623.41;1601423;88;21612;-74
2022/08/05 05:57:39;;;;;;;2.72;2.50;;;;;;;30.65;43.91;100628.38;1601011;88;20162;-74
2022/08/05 06:00:10;;;;;;;3.60;2.67;;;;;;;31.02;43.92;100633.48;1602993;88;21082;-74
2022/08/05 06:02:36;;;;;;;7.05;2.45;;;;;;;31.37;43.52;100636.06;1600188;88;21642;-74
2022/08/05 06:05:04;;;;;;;3.15;2.40;;;;;;;31.75;43.18;100629.91;1600941;88;21094;-74
2022/08/05 06:07:30;;;;;;;4.60;2.67;;;;;;;32.10;42.72;100636.39;1562736;90;21110;-74
2022/08/05 06:09:57;;;;;;;9.13;2.50;;;;;;;32.43;42.29;100633.28;1595874;88;21675;-74
2022/08/05 06:12:23;;;;;;;;;;;;;;;32.70;41.83;100632.12;1595245;88;21123;-75
2022/08/05 06:14:49;;;;;;;6.50;2.47;;;;;;;32.87;40.58;100628.45;1603341;88;20216;-75
2022/08/05 06:17:15;;;;;;;4.97;2.95;;;;;;;33.11;41.36;100626.75;1560383;91;21452;-75
2022/08/05 06:19:42;;;;;;;5.30;3.05;;;;;;;33.39;40.90;100629.37;1542973;91;21112;-74
2022/08/05 06:22:08;;;;;;;3.85;2.77;;;;;;;33.66;40.51;100632.12;1592806;88;21095;-74
2022/08/05 06:24:39;;;;;;;5.90;2.55;;;;;;;33.91;40.01;100635.55;1622339;85;21117;-74
2022/08/05 06:27:06;;;;;;;5.67;2.65;;;;;;;34.15;39.54;100632.73;1617970;87;20996;-74
2022/08/05 06:29:32;;;;;;;7.90;2.72;;;;;;;34.37;39.00;100630.24;1622923;87;21053;-75
2022/08/05 06:31:58;;;;;;;10.45;3.02;;;;;;;34.59;38.63;100631.26;1622338;86;22291;-75
2022/08/05 06:34:25;;;;;;;3.80;3.00;;;;;;;34.82;38.32;100638.83;1622964;86;21112;-75
2022/08/05 06:36:51;;;;;;;5.62;3.08;;;;;;;35.00;37.91;100637.13;1624957;86;21124;-75
2022/08/05 06:39:17;;;;;;;8.43;2.80;;;;;;;35.21;37.44;100634.56;1623894;87;21075;-75
2022/08/05 06:41:44;;;;;;;4.28;2.87;;;;;;;35.37;37.06;100636.24;1612652;86;21354;-75
2022/08/05 06:44:10;;;;;;;;;;;;;;;35.60;36.72;100628.08;1594915;88;21067;-75
2022/08/05 06:46:36;;;;;;;;;;;;;;;35.82;36.26;100631.19;1592280;88;20235;-75
2022/08/05 06:49:02;;;;;;;4.65;2.62;;;;;;;35.89;36.26;100621.82;1591886;88;20748;-75
2022/08/05 06:51:29;;;;;;;3.80;2.70;;;;;;;35.93;35.88;100622.59;1587685;88;21135;-75
2022/08/05 06:53:58;;;;;;;3.85;2.40;;;;;;;36.03;35.44;100623.13;1589749;90;21114;-75
2022/08/05 06:56:26;;;;;;;3.52;2.50;;;;;;;36.12;34.84;100624.69;1590130;88;21782;-75
2022/08/05 06:58:53;;;;;;;4.17;2.25;;;;;;;36.21;34.58;100624.05;1569023;90;21104;-75
2022/08/05 07:01:20;;;;;;;7.65;2.77;;;;;;;36.43;34.22;100620.86;1558877;90;21116;-75
2022/08/05 07:03:46;;;;;;;12.03;2.85;;;;;;;36.64;33.82;100616.81;1566106;88;21100;-75
2022/08/05 07:06:12;;;;;;;;;;;;;;;36.86;33.25;100621.69;1591983;88;21095;-75
2022/08/05 07:08:39;;;;;;;6.72;2.75;;;;;;;37.06;33.41;100613.20;1593156;88;20228;-75
2022/08/05 07:11:05;;;;;;;8.08;2.67;;;;;;;37.29;33.01;100613.48;1590153;88;21108;-75
2022/08/05 07:19:04;;;;;;;4.37;2.47;;;;;;;38.29;31.89;100609.61;1590219;88;21071;-75
2022/08/05 07:21:30;;;;;;;5.05;2.58;;;;;;;38.45;31.52;100607.55;1596668;88;21025;-75
2022/08/05 07:23:57;;;;;;;11.22;2.72;;;;;;;38.53;30.85;100608.16;1592348;88;21107;-75
2022/08/05 07:26:23;;;;;;;3.65;2.70;;;;;;;38.48;30.60;100607.11;1591978;87;21157;-75
2022/08/05 07:28:50;;;;;;;7.85;2.72;;;;;;;38.66;30.36;100608.71;1589127;88;21087;-75
2022/08/05 07:31:17;;;;;;;11.38;3.20;;;;;;;38.97;30.09;100613.48;1612881;87;21591;-75
2022/08/05 07:33:44;;;;;;;3.52;2.98;;;;;;;39.13;29.80;100608.98;1587744;88;21061;-75
2022/08/05 07:36:10;;;;;;;4.95;2.75;;;;;;;39.32;29.41;100606.75;1586987;88;21138;-75
2022/08/05 07:38:37;;;;;;;3.22;2.87;;;;;;;39.66;29.18;100613.70;1584476;88;21157;-75
2022/08/05 07:41:06;;;;;;;5.72;2.80;;;;;;;39.82;28.78;100612.39;1609899;87;22357;-75
2022/08/05 07:43:32;;;;;;;11.05;3.15;;;;;;;39.91;28.26;100611.13;1644054;86;21163;-75
2022/08/05 07:45:59;;;;;;;7.53;2.70;;;;;;;40.02;28.10;100609.61;1627066;86;21605;-75
2022/08/05 07:48:25;;;;;;;6.85;3.08;;;;;;;40.06;27.84;100614.03;1629122;86;21087;-75
2022/08/05 07:50:52;;;;;;;16.65;3.87;;;;;;;40.01;27.46;100610.13;1629910;86;21144;-75
2022/08/05 07:53:18;;;;;;;3.83;3.20;;;;;;;39.94;27.18;100616.63;1636018;86;21102;-75
2022/08/05 07:55:44;;;;;;;5.75;3.17;;;;;;;39.87;26.79;100607.16;1630492;86;21730;-75
2022/08/05 07:58:11;;;;;;;4.22;2.92;;;;;;;39.81;26.64;100612.08;1634727;86;21017;-75
2022/08/05 08:00:37;;;;;;;5.67;3.05;;;;;;;39.76;26.41;100619.19;1631365;85;21088;-75
2022/08/05 08:03:11;;;;;;;9.23;3.42;;;;;;;39.68;26.24;100614.33;1630870;86;21198;-75
2022/08/05 08:05:42;;;;;;;9.28;3.00;;;;;;;39.70;25.99;100610.05;1636141;86;21095;-75
2022/08/05 08:08:08;;;;;;;10.35;3.22;;;;;;;39.74;25.69;100609.09;1632499;86;21076;-75
2022/08/05 08:10:34;;;;;;;3.27;3.00;;;;;;;39.80;25.57;100606.87;1629432;86;21080;-75
2022/08/05 08:13:01;;;;;;;5.95;3.25;;;;;;;39.96;25.48;100606.41;1629893;87;21099;-75
2022/08/05 08:15:27;;;;;;;6.65;3.00;;;;;;;40.03;25.15;100604.50;1630317;86;21085;-75
2022/08/05 08:17:54;;;;;;;8.05;3.27;;;;;;;40.14;25.06;100605.65;1627515;86;21082;-75
2022/08/05 08:20:24;;;;;;;3.85;3.40;;;;;;;40.23;24.89;100605.70;1625210;86;21098;-75
2022/08/05 08:22:55;;;;;;;7.40;3.27;;;;;;;40.29;24.81;100602.11;1628869;87;21071;-75
2022/08/05 08:25:22;;;;;;;6.42;3.08;;;;;;;40.37;24.69;100602.41;1608367;87;20972;-75
2022/08/05 08:27:49;;;;;;;6.30;2.90;;;;;;;40.48;24.58;100594.39;1617183;88;21416;-75
2022/08/05 08:30:16;;;;;;;4.08;2.98;;;;;;;40.67;24.33;100593.89;1615665;88;21670;-75
2022/08/05 08:32:42;;;;;;;4.90;3.83;;;;;;;40.77;24.26;100587.99;1611518;88;21176;-75
2022/08/05 08:35:10;;;;;;;3.75;3.22;;;;;;;40.67;24.10;100598.78;1601041;86;157729;-75
2022/08/05 08:37:36;;;;;;;7.72;2.80;;;;;;;40.58;23.96;100599.28;1623263;85;21106;-75
2022/08/05 08:40:04;;;;;;;5.95;3.10;;;;;;;40.45;23.94;100588.58;1627350;86;21147;-75
2022/08/05 08:42:32;;;;;;;5.28;3.25;;;;;;;40.49;23.90;100592.51;1632001;86;20956;-75
2022/08/05 08:45:04;;;;;;;9.15;3.35;;;;;;;40.60;23.88;100595.30;1626802;86;21029;-75
2022/08/05 08:47:27;;;;;;;4.55;3.22;;;;;;;40.75;23.83;100590.89;1631024;86;21001;-75
2022/08/05 08:49:56;;;;;;;5.80;3.30;;;;;;;40.75;23.65;100588.19;1631217;86;20939;-75
2022/08/05 08:52:27;;;;;;;11.00;3.50;;;;;;;40.56;23.41;100585.95;1626987;86;20905;-76
2022/08/05 08:54:54;;;;;;;3.40;3.10;;;;;;;40.29;23.51;100589.39;1629642;86;20994;-75
2022/08/05 08:57:21;;;;;;;5.90;2.98;;;;;;;40.08;23.34;100585.68;1630077;86;21452;-74
2022/08/05 08:59:49;;;;;;;6.15;3.30;;;;;;;39.75;23.24;100575.56;1632309;86;21035;-74
2022/08/05 09:02:18;;;;;;;3.83;3.05;;;;;;;39.41;23.09;100575.39;1630085;86;20925;-75
2022/08/05 09:04:46;;;;;;;8.68;2.72;;;;;;;38.94;23.21;100572.81;1627908;86;21058;-75
2022/08/05 09:07:12;;;;;;;8.03;3.20;;;;;;;38.53;23.23;100576.24;1629333;86;21073;-75
2022/08/05 09:09:39;;;;;;;8.08;3.40;;;;;;;38.12;23.22;100571.84;1628433;86;21078;-75
2022/08/05 09:12:08;;;;;;;4.10;2.70;;;;;;;37.64;23.21;100569.21;1628073;86;21100;-75
2022/08/05 09:14:36;;;;;;;8.80;3.12;;;;;;;37.27;23.27;100574.57;1628438;86;21078;-74
2022/08/05 09:17:11;;;;;;;3.85;3.05;;;;;;;36.92;23.38;100571.52;1628558;86;21071;-74
2022/08/05 09:19:38;;;;;;;5.05;3.12;;;;;;;36.66;23.45;100568.11;1591751;88;20998;-74
2022/08/05 09:22:07;;;;;;;3.35;3.02;;;;;;;36.42;23.50;100568.84;1592634;88;20993;-74
2022/08/05 09:24:41;;;;;;;5.28;3.15;;;;;;;36.18;23.56;100565.20;1609165;85;21095;-75
2022/08/05 09:27:08;;;;;;;5.33;2.87;;;;;;;35.94;23.58;100561.02;1632592;85;21432;-74
2022/08/05 09:29:45;;;;;;;5.65;3.00;;;;;;;35.69;23.71;100562.37;1633818;86;21531;-74
2022/08/05 09:32:11;;;;;;;10.60;2.98;;;;;;;35.52;23.84;100560.93;1635381;85;21420;-75
2022/08/05 09:34:55;;;;;;;6.62;3.00;;;;;;;35.40;23.96;100551.16;1638114;85;21274;-75
2022/08/05 09:37:25;;;;;;;5.35;2.90;;;;;;;35.25;24.02;100551.17;1635768;85;21081;-74
2022/08/05 09:39:52;;;;;;;6.58;2.83;;;;;;;35.06;24.16;100561.12;1632827;85;21156;-74
2022/08/05 09:42:22;;;;;;;8.10;2.70;;;;;;;34.93;24.30;100558.25;1634783;85;21082;-74
2022/08/05 09:44:51;;;;;;;8.75;2.90;;;;;;;34.82;24.40;100548.81;1634287;85;21526;-75
2022/08/05 09:47:24;;;;;;;8.20;2.75;;;;;;;34.76;24.53;100550.86;1634589;85;21078;-75
2022/08/05 09:49:54;;;;;;;5.25;3.00;;;;;;;34.68;24.57;100550.94;1635853;86;21099;-74
2022/08/05 09:52:27;;;;;;;6.00;3.00;;;;;;;34.59;24.64;100543.97;1633952;85;21133;-74
2022/08/05 09:55:01;;;;;;;9.93;3.02;;;;;;;34.47;24.75;100552.97;1635961;86;21117;-74
2022/08/05 09:57:44;;;;;;;5.75;3.42;;;;;;;34.44;24.85;100540.73;1617556;86;329142;-74
2022/08/05 10:00:23;;;;;;;5.45;3.08;;;;;;;34.44;24.98;100538.05;1607702;87;21093;-74
2022/08/05 10:02:56;;;;;;;2.80;2.60;;;;;;;34.38;25.01;100538.77;1597478;88;21025;-74
2022/08/05 10:05:23;;;;;;;3.45;2.65;;;;;;;34.32;25.09;100526.58;1596711;88;20906;-74
2022/08/05 10:07:55;;;;;;;6.62;3.22;;;;;;;34.33;25.16;100532.28;1609030;87;21070;-75
2022/08/05 10:10:25;;;;;;;7.53;3.10;;;;;;;34.32;25.24;100530.09;1606209;87;21361;-74
2022/08/05 10:12:56;;;;;;;7.15;2.72;;;;;;;34.34;25.31;100529.92;1607472;87;21626;-74
2022/08/05 10:15:30;;;;;;;7.03;2.98;;;;;;;34.35;25.34;100531.59;1607464;87;21115;-74
2022/08/05 10:18:21;;;;;;;5.60;2.70;;;;;;;34.33;25.38;100529.08;1609526;87;21078;-74
2022/08/05 10:20:58;;;;;;;9.03;3.02;;;;;;;34.32;25.43;100512.64;1607408;87;21588;-74
2022/08/05 10:23:32;;;;;;;2.95;2.72;;;;;;;34.32;25.45;100510.47;1609314;87;21134;-74
2022/08/05 10:26:01;;;;;;;6.00;3.08;;;;;;;34.35;25.57;100508.77;1566751;90;21209;-74
2022/08/05 10:28:29;;;;;;;6.45;2.90;;;;;;;34.39;25.64;100514.10;1562740;89;21148;-74
2022/08/05 10:30:57;;;;;;;4.55;2.80;;;;;;;34.43;25.62;100505.50;1565143;89;21118;-74
2022/08/05 10:33:28;;;;;;;4.78;2.62;;;;;;;34.49;25.65;100496.72;1569320;90;20965;-74
2022/08/05 10:35:55;;;;;;;5.70;2.95;;;;;;;34.60;25.75;100500.81;1568776;90;20949;-74
2022/08/05 10:38:27;;;;;;;4.12;2.65;;;;;;;34.72;25.78;100498.00;1574986;90;21132;-74
2022/08/05 10:41:05;;;;;;;4.70;3.05;;;;;;;34.81;25.76;100500.95;1595668;88;21134;-74
2022/08/05 10:43:54;;;;;;;7.90;2.70;;;;;;;34.86;25.79;100497.69;1595623;88;21234;-75
2022/08/05 10:46:21;;;;;;;8.18;3.02;;;;;;;34.88;25.84;100495.65;1585976;88;21157;-74
2022/08/05 10:48:51;;;;;;;9.83;2.77;;;;;;;34.92;25.89;100494.26;1595921;88;21663;-74
2022/08/05 10:51:20;;;;;;;10.75;2.95;;;;;;;34.96;25.87;100497.41;1541505;91;21687;-74
2022/08/05 10:53:59;;;;;;;8.90;3.58;;;;;;;35.03;25.90;100492.96;1538792;91;21147;-74
2022/08/05 10:56:30;;;;;;;7.37;3.25;;;;;;;35.08;25.92;100482.48;1570429;88;21577;-74
2022/08/05 10:59:04;;;;;;;5.53;3.10;;;;;;;35.11;25.90;100484.29;1572801;90;21122;-74
2022/08/05 11:01:38;;;;;;;6.65;2.60;;;;;;;35.14;25.90;100487.11;1596637;88;20929;-75
2022/08/05 11:04:19;;;;;;;5.62;2.98;;;;;;;35.25;25.91;100479.92;1592893;88;21100;-74
2022/08/05 11:07:03;;;;;;;5.25;2.58;;;;;;;35.33;25.90;100486.56;1596816;88;21123;-74
2022/08/05 11:09:49;;;;;;;9.48;2.98;;;;;;;35.36;25.91;100486.16;1591069;88;21059;-75
2022/08/05 11:12:41;;;;;;;7.92;3.02;;;;;;;35.32;25.91;100480.03;1592805;88;21107;-74
2022/08/05 11:15:20;;;;;;;4.47;2.72;;;;;;;35.36;25.96;100478.60;1594009;88;21136;-74
2022/08/05 11:17:49;;;;;;;4.05;2.75;;;;;;;35.40;25.94;100471.31;1594106;88;21098;-74
2022/08/05 11:20:44;;;;;;;3.83;2.65;;;;;;;35.38;25.90;100471.18;1590621;88;21040;-74
2022/08/05 11:23:31;;;;;;;;;;;;;;;35.38;25.90;100472.52;1597569;88;21570;-74
2022/08/05 11:26:11;;;;;;;;;;;;;;;35.36;25.98;100471.37;1593714;88;20216;-75
2022/08/05 11:28:38;;;;;;;;;;;;;;;35.34;26.00;100463.20;1573964;89;20195;-75
2022/08/05 11:31:11;;;;;;;;;;;;;;;35.30;25.99;100472.16;1596233;88;20172;-75
2022/08/05 11:33:50;;;;;;;;;;;;;;;35.20;25.94;100467.55;1592374;88;20211;-75
2022/08/05 11:36:18;;;;;;;;;;;;;;;35.15;26.08;100471.31;1588206;88;20195;-74
2022/08/05 11:38:50;;;;;;;;;;;;;;;35.20;26.19;100474.27;1577974;89;20546;-74
2022/08/05 11:41:21;;;;;;;;;;;;;;;35.28;26.19;100477.36;1592743;88;20227;-74
2022/08/05 11:44:05;;;;;;;;;;;;;;;35.31;26.13;100477.02;1591413;88;20207;-74
2022/08/05 11:46:34;;;;;;;;;;;;;;;35.33;26.20;100478.50;1591981;88;20474;-74
2022/08/05 11:49:02;;;;;;;;;;;;;;;35.36;26.12;100484.81;1593251;88;20520;-74